createdAt,value
2019-03-19T00:02:17.242Z,14.13
2019-03-19T00:04:45.673Z,13.93
2019-03-19T00:07:14.096Z,16.03
2019-03-19T00:09:42.520Z,17.60
2019-03-19T00:12:10.930Z,17.07
2019-03-19T00:14:39.348Z,16.57
2019-03-19T00:17:07.760Z,16.67
2019-03-19T00:19:36.182Z,24.43
2019-03-19T00:22:04.677Z,17.53
2019-03-19T00:24:33.100Z,17.43
2019-03-19T00:27:01.515Z,15.67
2019-03-19T00:29:29.921Z,20.20
2019-03-19T00:31:58.360Z,17.00
2019-03-19T00:34:26.777Z,20.03
2019-03-19T00:36:55.232Z,21.20
2019-03-19T00:39:23.638Z,24.30
2019-03-19T00:41:52.092Z,20.80
2019-03-19T00:44:20.500Z,18.17
2019-03-19T00:46:48.926Z,25.50
2019-03-19T00:49:17.340Z,22.30
2019-03-19T00:51:45.777Z,20.40
2019-03-19T00:54:14.213Z,24.03
2019-03-19T00:56:42.626Z,21.50
2019-03-19T00:59:11.045Z,26.07
2019-03-19T01:01:39.463Z,24.33
2019-03-19T01:04:07.899Z,26.20
2019-03-19T01:06:36.383Z,26.73
2019-03-19T01:09:06.612Z,26.43
2019-03-19T01:11:35.035Z,26.23
2019-03-19T01:14:03.452Z,33.30
2019-03-19T01:16:31.951Z,34.93
2019-03-19T01:19:00.375Z,29.00
2019-03-19T01:21:28.811Z,28.37
2019-03-19T01:23:57.246Z,31.97
2019-03-19T01:26:25.678Z,36.30
2019-03-19T01:28:54.109Z,27.30
2019-03-19T01:31:22.527Z,31.30
2019-03-19T01:33:50.934Z,25.50
2019-03-19T01:36:19.359Z,26.50
2019-03-19T01:38:47.796Z,25.00
2019-03-19T01:41:16.250Z,26.00
2019-03-19T01:43:44.657Z,26.10
2019-03-19T01:46:13.099Z,25.80
2019-03-19T01:48:41.516Z,23.37
2019-03-19T01:51:09.952Z,22.23
2019-03-19T01:53:38.368Z,22.30
2019-03-19T01:56:06.809Z,25.57
2019-03-19T01:58:35.225Z,21.23
2019-03-19T02:01:03.742Z,19.47
2019-03-19T02:03:32.198Z,19.63
2019-03-19T02:06:00.700Z,21.47
2019-03-19T02:08:29.108Z,20.60
2019-03-19T02:10:57.561Z,18.87
2019-03-19T02:13:25.971Z,19.90
2019-03-19T02:15:54.406Z,18.80
2019-03-19T02:18:22.815Z,17.13
2019-03-19T02:20:51.254Z,19.70
2019-03-19T02:23:19.676Z,18.90
2019-03-19T02:25:48.105Z,17.13
2019-03-19T02:28:16.537Z,18.23
2019-03-19T02:30:44.968Z,17.80
2019-03-19T02:33:13.464Z,14.80
2019-03-19T02:35:41.873Z,17.90
2019-03-19T02:38:10.322Z,18.13
2019-03-19T02:40:38.745Z,17.80
2019-03-19T02:43:07.175Z,20.33
2019-03-19T02:45:35.616Z,19.80
2019-03-19T02:48:04.118Z,22.97
2019-03-19T02:50:32.554Z,17.03
2019-03-19T02:53:00.988Z,18.40
2019-03-19T02:55:29.404Z,15.87
2019-03-19T02:57:57.830Z,17.77
2019-03-19T03:00:26.235Z,20.87
2019-03-19T03:02:54.664Z,22.47
2019-03-19T03:05:23.145Z,19.90
2019-03-19T03:07:51.578Z,20.33
2019-03-19T03:10:20.000Z,17.37
2019-03-19T03:12:48.454Z,24.07
2019-03-19T03:15:16.891Z,26.60
2019-03-19T03:17:45.384Z,21.53
2019-03-19T03:20:16.745Z,18.70
2019-03-19T03:22:45.190Z,19.67
2019-03-19T03:25:14.640Z,26.90
2019-03-19T03:27:43.092Z,20.77
2019-03-19T03:30:24.909Z,23.00
2019-03-19T03:32:53.489Z,21.57
2019-03-19T03:35:22.197Z,20.67
2019-03-19T03:37:50.870Z,21.67
2019-03-19T03:40:20.166Z,16.27
2019-03-19T03:42:48.585Z,18.03
2019-03-19T03:45:17.757Z,16.70
2019-03-19T03:47:46.355Z,17.60
2019-03-19T03:50:16.001Z,17.30
2019-03-19T03:52:44.444Z,18.17
2019-03-19T03:55:17.467Z,16.83
2019-03-19T03:57:45.950Z,17.47
2019-03-19T04:00:20.401Z,17.30
2019-03-19T04:02:48.903Z,18.87
2019-03-19T04:05:17.417Z,18.10
2019-03-19T04:07:45.830Z,19.90
2019-03-19T04:10:16.455Z,15.30
2019-03-19T04:12:44.936Z,18.90
2019-03-19T04:15:14.495Z,17.10
2019-03-19T04:17:42.992Z,17.63
2019-03-19T04:20:13.428Z,18.77
2019-03-19T04:22:41.855Z,16.70
2019-03-19T04:25:11.153Z,20.27
2019-03-19T04:27:40.594Z,20.23
2019-03-19T04:30:16.497Z,17.57
2019-03-19T04:32:44.901Z,16.40
2019-03-19T04:35:13.596Z,15.93
2019-03-19T04:37:42.085Z,16.07
2019-03-19T04:40:11.932Z,17.97
2019-03-19T04:42:40.345Z,17.30
2019-03-19T04:45:12.999Z,17.80
2019-03-19T04:47:41.389Z,18.37
2019-03-19T04:50:11.963Z,16.80
2019-03-19T04:52:40.368Z,17.03
2019-03-19T04:55:10.650Z,18.23
2019-03-19T04:57:39.055Z,16.93
2019-03-19T05:00:10.895Z,15.20
2019-03-19T05:02:39.301Z,18.10
2019-03-19T05:05:09.846Z,19.43
2019-03-19T05:07:38.319Z,14.90
2019-03-19T05:10:09.833Z,15.80
2019-03-19T05:12:38.224Z,14.37
2019-03-19T05:15:07.995Z,14.50
2019-03-19T05:17:36.399Z,22.23
2019-03-19T05:20:07.921Z,17.17
2019-03-19T05:22:36.301Z,17.30
2019-03-19T05:25:05.663Z,17.03
2019-03-19T05:27:37.701Z,15.70
2019-03-19T05:30:15.325Z,16.97
2019-03-19T05:32:43.734Z,15.47
2019-03-19T05:35:12.148Z,17.10
2019-03-19T05:37:40.634Z,19.80
2019-03-19T05:40:15.981Z,16.70
2019-03-19T05:42:44.408Z,14.83
2019-03-19T05:45:13.871Z,18.00
2019-03-19T05:47:42.625Z,16.27
2019-03-19T05:50:18.526Z,17.87
2019-03-19T05:52:48.442Z,18.07
2019-03-19T05:55:17.332Z,16.90
2019-03-19T05:57:49.809Z,19.57
2019-03-19T06:00:18.638Z,32.97
2019-03-19T06:02:47.056Z,18.10
2019-03-19T06:05:15.551Z,25.07
2019-03-19T06:07:44.032Z,27.17
2019-03-19T06:10:13.612Z,28.07
2019-03-19T06:12:42.105Z,18.40
2019-03-19T06:15:14.609Z,18.80
2019-03-19T06:17:43.003Z,21.40
2019-03-19T06:20:13.741Z,20.83
2019-03-19T06:22:42.152Z,19.70
2019-03-19T06:25:13.003Z,19.30
2019-03-19T06:27:41.539Z,20.53
2019-03-19T06:30:15.240Z,23.13
2019-03-19T06:32:43.711Z,24.50
2019-03-19T06:35:13.090Z,20.90
2019-03-19T06:37:41.490Z,20.97
2019-03-19T06:40:12.724Z,22.60
2019-03-19T06:42:41.131Z,22.17
2019-03-19T06:45:14.511Z,21.50
2019-03-19T06:47:42.972Z,18.90
2019-03-19T06:50:13.810Z,17.93
2019-03-19T06:52:42.229Z,19.70
2019-03-19T06:55:12.365Z,17.57
2019-03-19T06:57:40.776Z,21.73
2019-03-19T07:00:12.267Z,17.60
2019-03-19T07:03:00.016Z,19.00
2019-03-19T07:05:28.433Z,20.23
2019-03-19T07:07:56.848Z,18.83
2019-03-19T07:10:25.274Z,17.27
2019-03-19T07:13:13.016Z,18.93
2019-03-19T07:15:41.427Z,13.67
2019-03-19T07:18:09.855Z,16.53
2019-03-19T07:20:38.281Z,13.30
2019-03-19T07:23:06.683Z,13.20
2019-03-19T07:25:35.109Z,20.47
2019-03-19T07:28:04.271Z,16.23
2019-03-19T07:30:32.687Z,19.40
2019-03-19T07:33:01.163Z,21.47
2019-03-19T07:35:29.643Z,20.33
2019-03-19T07:37:58.048Z,13.70
2019-03-19T07:40:26.444Z,15.53
2019-03-19T07:42:54.856Z,12.23
2019-03-19T07:45:25.363Z,11.63
2019-03-19T07:47:53.801Z,13.87
2019-03-19T07:50:23.264Z,13.97
2019-03-19T07:52:51.691Z,19.63
2019-03-19T07:55:20.170Z,17.47
2019-03-19T07:57:48.587Z,12.97
2019-03-19T08:00:17.819Z,11.53
2019-03-19T08:02:46.220Z,17.83
2019-03-19T08:05:14.759Z,15.20
2019-03-19T08:07:43.263Z,13.17
2019-03-19T08:10:13.877Z,14.73
2019-03-19T08:12:42.351Z,14.53
2019-03-19T08:15:17.590Z,16.13
2019-03-19T08:17:46.035Z,12.77
2019-03-19T08:20:15.390Z,16.73
2019-03-19T08:22:43.959Z,14.80
2019-03-19T08:25:14.390Z,17.17
2019-03-19T08:27:42.883Z,11.57
2019-03-19T08:30:14.369Z,11.60
2019-03-19T08:32:42.782Z,13.87
2019-03-19T08:35:11.251Z,18.93
2019-03-19T08:37:39.681Z,16.60
2019-03-19T08:40:13.187Z,19.20
2019-03-19T08:42:41.661Z,15.07
2019-03-19T08:45:21.643Z,14.63
2019-03-19T08:47:50.059Z,13.60
2019-03-19T08:50:20.563Z,16.20
2019-03-19T08:52:48.976Z,15.83
2019-03-19T08:55:17.455Z,19.70
2019-03-19T08:57:45.868Z,19.13
2019-03-19T09:00:25.458Z,18.87
2019-03-19T09:02:53.865Z,20.40
2019-03-19T09:05:22.285Z,23.00
2019-03-19T09:07:50.690Z,18.37
2019-03-19T09:10:19.944Z,19.10
2019-03-19T09:12:48.991Z,12.20
2019-03-19T09:15:19.876Z,12.00
2019-03-19T09:17:48.277Z,20.97
2019-03-19T09:20:17.633Z,15.30
2019-03-19T09:22:46.111Z,19.07
2019-03-19T09:25:14.581Z,16.23
2019-03-19T09:27:42.986Z,19.83
2019-03-19T09:30:24.373Z,13.80
2019-03-19T09:33:12.186Z,12.50
2019-03-19T09:35:40.591Z,15.03
2019-03-19T09:38:09.021Z,15.97
2019-03-19T09:40:37.423Z,12.23
2019-03-19T09:43:05.834Z,19.03
2019-03-19T09:45:34.249Z,12.13
2019-03-19T09:48:02.668Z,12.90
2019-03-19T09:50:31.060Z,13.83
2019-03-19T09:52:59.475Z,11.87
2019-03-19T09:55:27.896Z,10.93
2019-03-19T09:57:56.311Z,10.73
2019-03-19T10:00:24.795Z,13.47
2019-03-19T10:02:53.346Z,11.60
2019-03-19T10:05:21.753Z,10.67
2019-03-19T10:07:50.183Z,12.20
2019-03-19T10:10:20.689Z,11.67
2019-03-19T10:12:49.179Z,10.27
2019-03-19T10:15:18.664Z,9.50
2019-03-19T10:17:47.249Z,9.40
2019-03-19T10:20:21.354Z,14.00
2019-03-19T10:22:49.763Z,9.90
2019-03-19T10:25:18.219Z,10.33
2019-03-19T10:27:46.632Z,9.97
2019-03-19T10:30:17.746Z,10.27
2019-03-19T10:32:46.157Z,12.40
2019-03-19T10:35:14.750Z,8.30
2019-03-19T10:37:43.272Z,8.20
2019-03-19T10:40:14.185Z,9.47
2019-03-19T10:42:42.581Z,7.40
2019-03-19T10:45:15.435Z,5.87
2019-03-19T10:47:43.948Z,5.67
2019-03-19T10:50:14.960Z,5.70
2019-03-19T10:52:43.385Z,7.60
2019-03-19T10:55:11.921Z,10.97
2019-03-19T10:57:40.332Z,8.40
2019-03-19T11:00:14.734Z,6.57
2019-03-19T11:02:43.152Z,7.33
2019-03-19T11:05:13.478Z,5.93
2019-03-19T11:07:41.908Z,6.97
2019-03-19T11:10:12.233Z,9.93
2019-03-19T11:12:40.644Z,11.83
2019-03-19T11:15:17.394Z,12.23
2019-03-19T11:17:45.988Z,9.43
2019-03-19T11:20:16.521Z,6.97
2019-03-19T11:22:45.064Z,6.40
2019-03-19T11:25:15.881Z,5.77
2019-03-19T11:27:44.540Z,6.90
2019-03-19T11:30:32.470Z,14.53
2019-03-19T11:36:39.615Z,6.90
2019-03-19T11:39:08.986Z,6.63
2019-03-19T11:41:37.439Z,4.93
2019-03-19T11:44:05.920Z,4.60
2019-03-19T11:46:34.425Z,6.90
2019-03-19T11:49:02.887Z,4.30
2019-03-19T11:51:31.366Z,7.93
2019-03-19T11:53:59.829Z,6.27
2019-03-19T11:56:28.288Z,6.93
2019-03-19T11:58:56.791Z,9.30
2019-03-19T12:01:25.258Z,5.93
2019-03-19T12:03:53.759Z,6.60
2019-03-19T12:06:22.242Z,6.90
2019-03-19T12:08:50.733Z,10.03
2019-03-19T12:11:19.161Z,6.17
2019-03-19T12:13:47.662Z,6.33
2019-03-19T12:16:16.183Z,4.27
2019-03-19T12:18:44.673Z,7.63
2019-03-19T12:21:13.122Z,4.23
2019-03-19T12:23:41.609Z,3.97
2019-03-19T12:26:10.066Z,5.93
2019-03-19T12:28:39.948Z,7.60
2019-03-19T12:31:08.571Z,5.70
2019-03-19T12:33:41.121Z,5.67
2019-03-19T12:36:07.309Z,5.23
2019-03-19T12:38:35.758Z,3.97
2019-03-19T12:41:04.333Z,3.57
2019-03-19T12:43:32.821Z,5.90
2019-03-19T12:46:01.293Z,3.90
2019-03-19T12:48:29.789Z,5.57
2019-03-19T12:50:58.247Z,5.97
2019-03-19T12:53:26.740Z,5.60
2019-03-19T12:55:55.210Z,5.07
2019-03-19T12:58:23.648Z,4.33
2019-03-19T13:00:52.073Z,6.17
2019-03-19T13:03:20.531Z,5.80
2019-03-19T13:05:49.008Z,5.00
2019-03-19T13:08:17.479Z,3.43
2019-03-19T13:10:45.932Z,4.43
2019-03-19T13:13:14.415Z,3.70
2019-03-19T13:15:42.863Z,3.83
2019-03-19T13:18:11.340Z,5.53
2019-03-19T13:20:39.814Z,4.93
2019-03-19T13:23:08.339Z,3.40
2019-03-19T13:25:36.769Z,3.50
2019-03-19T13:28:05.717Z,6.83
2019-03-19T13:30:44.397Z,7.77
2019-03-19T13:33:04.753Z,4.70
2019-03-19T13:35:33.219Z,4.77
2019-03-19T13:38:01.690Z,6.13
2019-03-19T13:40:30.187Z,4.93
2019-03-19T13:42:58.684Z,4.97
2019-03-19T13:45:27.203Z,5.00
2019-03-19T13:47:55.657Z,6.43
2019-03-19T13:50:24.252Z,4.77
2019-03-19T13:52:52.758Z,4.90
2019-03-19T13:55:24.894Z,6.70
2019-03-19T13:57:53.414Z,4.43
2019-03-19T14:00:21.986Z,5.07
2019-03-19T14:02:50.458Z,9.13
2019-03-19T14:05:19.093Z,7.50
2019-03-19T14:07:47.632Z,5.80
2019-03-19T14:10:20.053Z,6.70
2019-03-19T14:12:48.861Z,5.33
2019-03-19T14:15:21.283Z,6.50
2019-03-19T14:17:49.680Z,9.87
2019-03-19T14:20:18.161Z,9.67
2019-03-19T14:22:46.560Z,6.47
2019-03-19T14:25:15.719Z,9.10
2019-03-19T14:27:44.394Z,7.87
2019-03-19T14:30:19.758Z,6.20
2019-03-19T14:32:48.208Z,5.87
2019-03-19T14:35:16.616Z,7.20
2019-03-19T14:37:45.625Z,11.07
2019-03-19T14:40:18.884Z,8.33
2019-03-19T14:42:47.363Z,8.83
2019-03-19T14:45:17.008Z,7.17
2019-03-19T14:47:45.496Z,6.00
2019-03-19T14:50:16.292Z,6.73
2019-03-19T14:52:45.124Z,7.10
2019-03-19T14:55:13.759Z,5.97
2019-03-19T14:57:42.231Z,6.07
2019-03-19T15:00:15.731Z,4.60
2019-03-19T15:02:44.153Z,6.90
2019-03-19T15:05:14.096Z,11.10
2019-03-19T15:07:42.750Z,4.27
2019-03-19T15:10:15.676Z,6.10
2019-03-19T15:12:44.097Z,5.83
2019-03-19T15:15:15.595Z,5.23
2019-03-19T15:17:43.996Z,5.63
2019-03-19T15:20:23.509Z,4.80
2019-03-19T15:22:51.920Z,6.10
2019-03-19T15:25:20.336Z,4.20
2019-03-19T15:27:48.758Z,7.63
2019-03-19T15:30:20.450Z,4.80
2019-03-19T15:32:49.022Z,4.90
2019-03-19T15:35:17.600Z,4.63
2019-03-19T15:37:46.086Z,5.90
2019-03-19T15:40:19.294Z,8.80
2019-03-19T15:42:48.042Z,9.50
2019-03-19T15:45:30.534Z,5.93
2019-03-19T15:47:59.015Z,5.77
2019-03-19T15:50:27.402Z,6.20
2019-03-19T15:52:55.823Z,8.20
2019-03-19T15:55:24.223Z,5.13
2019-03-19T15:57:52.626Z,3.70
2019-03-19T16:00:21.571Z,8.03
2019-03-19T16:02:50.057Z,6.50
2019-03-19T16:05:18.536Z,6.40
2019-03-19T16:07:46.963Z,4.73
2019-03-19T16:10:19.103Z,6.70
2019-03-19T16:12:47.524Z,3.77
2019-03-19T16:15:20.611Z,6.23
2019-03-19T16:17:49.023Z,5.20
2019-03-19T16:20:21.221Z,7.97
2019-03-19T16:22:49.623Z,5.90
2019-03-19T16:25:18.052Z,6.47
2019-03-19T16:27:46.456Z,6.23
2019-03-19T16:30:20.882Z,3.80
2019-03-19T16:32:49.309Z,8.43
2019-03-19T16:35:17.723Z,7.60
2019-03-19T16:37:46.128Z,7.37
2019-03-19T16:40:19.308Z,4.10
2019-03-19T16:42:47.707Z,6.07
2019-03-19T16:45:18.080Z,10.17
2019-03-19T16:47:46.577Z,6.87
2019-03-19T16:50:21.967Z,6.70
2019-03-19T16:52:50.362Z,3.23
2019-03-19T16:55:20.037Z,7.20
2019-03-19T16:57:48.426Z,4.17
2019-03-19T17:00:28.994Z,4.60
2019-03-19T17:02:57.395Z,4.40
2019-03-19T17:05:25.817Z,3.43
2019-03-19T17:07:54.207Z,3.40
2019-03-19T17:10:25.688Z,7.83
2019-03-19T17:12:54.089Z,3.27
2019-03-19T17:15:22.518Z,5.27
2019-03-19T17:17:50.908Z,5.90
2019-03-19T17:20:19.884Z,7.23
2019-03-19T17:22:48.347Z,3.07
2019-03-19T17:25:26.919Z,2.60
2019-03-19T17:27:55.329Z,4.00
2019-03-19T17:30:25.552Z,8.30
2019-03-19T17:32:54.079Z,6.23
2019-03-19T17:35:22.493Z,3.47
2019-03-19T17:37:50.883Z,6.97
2019-03-19T17:40:19.391Z,6.20
2019-03-19T17:42:47.757Z,8.77
2019-03-19T17:45:17.005Z,5.70
2019-03-19T17:47:45.470Z,13.13
2019-03-19T17:50:30.971Z,8.20
2019-03-19T17:52:59.361Z,13.53
2019-03-19T17:55:27.803Z,5.90
2019-03-19T17:57:56.230Z,7.03
2019-03-19T18:00:44.427Z,9.17
2019-03-19T18:03:12.828Z,5.97
2019-03-19T18:05:41.249Z,7.70
2019-03-19T18:08:09.647Z,6.60
2019-03-19T18:10:38.070Z,4.23
2019-03-19T18:13:06.839Z,7.53
2019-03-19T18:15:35.352Z,5.80
2019-03-19T18:18:03.892Z,6.73
2019-03-19T18:20:32.299Z,12.63
2019-03-19T18:23:00.713Z,20.57
2019-03-19T18:25:29.151Z,44.80
2019-03-19T18:27:57.541Z,33.03
2019-03-19T18:30:26.223Z,25.90
2019-03-19T18:32:54.647Z,19.60
2019-03-19T18:35:23.134Z,18.70
2019-03-19T18:37:51.538Z,12.47
2019-03-19T18:40:20.500Z,12.07
2019-03-19T18:42:48.972Z,11.13
2019-03-19T18:45:18.141Z,17.90
2019-03-19T18:47:46.602Z,16.73
2019-03-19T18:50:15.843Z,8.30
2019-03-19T18:52:44.335Z,10.60
2019-03-19T18:55:13.092Z,7.67
2019-03-19T18:57:41.884Z,10.50
2019-03-19T19:00:25.343Z,5.73
2019-03-19T19:02:53.750Z,5.00
2019-03-19T19:05:23.092Z,7.80
2019-03-19T19:07:51.492Z,9.30
2019-03-19T19:10:21.396Z,10.23
2019-03-19T19:12:50.176Z,8.00
2019-03-19T19:15:21.650Z,7.97
2019-03-19T19:17:50.060Z,6.23
2019-03-19T19:20:18.827Z,5.43
2019-03-19T19:22:47.320Z,5.93
2019-03-19T19:25:20.572Z,4.80
2019-03-19T19:27:48.993Z,8.03
2019-03-19T19:30:19.490Z,6.23
2019-03-19T19:32:47.903Z,6.10
2019-03-19T19:35:16.312Z,4.50
2019-03-19T19:37:44.802Z,7.70
2019-03-19T19:40:15.193Z,4.80
2019-03-19T19:42:43.637Z,22.27
2019-03-19T19:45:16.753Z,30.40
2019-03-19T19:47:45.249Z,46.90
2019-03-19T19:50:15.773Z,67.87
2019-03-19T19:52:44.269Z,55.10
2019-03-19T19:55:14.121Z,48.87
2019-03-19T19:57:42.527Z,38.40
2019-03-19T20:00:16.156Z,12.10
2019-03-19T20:02:44.891Z,9.60
2019-03-19T20:05:13.588Z,13.93
2019-03-19T20:07:41.982Z,14.50
2019-03-19T20:10:18.015Z,8.70
2019-03-19T20:12:46.426Z,9.93
2019-03-19T20:15:14.909Z,7.77
2019-03-19T20:17:43.534Z,9.97
2019-03-19T20:20:14.659Z,9.63
2019-03-19T20:22:44.765Z,18.67
2019-03-19T20:25:13.420Z,8.20
2019-03-19T20:27:41.874Z,10.00
2019-03-19T20:30:13.122Z,14.63
2019-03-19T20:32:41.535Z,9.30
2019-03-19T20:35:11.379Z,13.40
2019-03-19T20:37:39.793Z,13.23
2019-03-19T20:40:15.648Z,11.53
2019-03-19T20:42:44.194Z,11.33
2019-03-19T20:45:25.819Z,7.87
2019-03-19T20:47:54.235Z,9.17
2019-03-19T20:50:30.397Z,8.40
2019-03-19T20:52:58.822Z,9.53
2019-03-19T20:55:27.250Z,7.33
2019-03-19T20:57:55.725Z,7.33
2019-03-19T21:00:24.275Z,7.83
2019-03-19T21:02:52.708Z,8.70
2019-03-19T21:05:21.101Z,7.80
2019-03-19T21:07:49.526Z,11.27
2019-03-19T21:10:19.772Z,8.67
2019-03-19T21:12:48.233Z,7.63
2019-03-19T21:15:21.865Z,9.40
2019-03-19T21:17:50.360Z,7.70
2019-03-19T21:20:18.840Z,15.53
2019-03-19T21:22:47.327Z,6.30
2019-03-19T21:25:15.796Z,7.40
2019-03-19T21:27:44.207Z,7.93
2019-03-19T21:30:18.223Z,6.53
2019-03-19T21:32:46.715Z,9.37
2019-03-19T21:35:16.648Z,7.27
2019-03-19T21:37:45.073Z,8.67
2019-03-19T21:40:14.433Z,10.17
2019-03-19T21:42:42.848Z,7.90
2019-03-19T21:45:15.793Z,8.13
2019-03-19T21:47:44.229Z,9.60
2019-03-19T21:50:15.231Z,6.43
2019-03-19T21:52:43.638Z,8.60
2019-03-19T21:55:14.160Z,4.57
2019-03-19T21:57:42.621Z,10.00
2019-03-19T22:00:16.041Z,7.20
2019-03-19T22:02:44.518Z,5.93
2019-03-19T22:05:12.917Z,7.80
2019-03-19T22:07:41.335Z,9.90
2019-03-19T22:10:16.986Z,13.63
2019-03-19T22:12:45.389Z,10.03
2019-03-19T22:15:18.968Z,9.50
2019-03-19T22:17:47.393Z,8.10
2019-03-19T22:20:15.856Z,10.90
2019-03-19T22:22:44.276Z,9.20
2019-03-19T22:25:14.673Z,11.77
2019-03-19T22:27:43.097Z,10.40
2019-03-19T22:30:16.486Z,6.03
2019-03-19T22:32:45.269Z,8.20
2019-03-19T22:35:13.756Z,12.13
2019-03-19T22:37:42.225Z,10.00
2019-03-19T22:40:12.983Z,13.03
2019-03-19T22:42:41.681Z,11.80
2019-03-19T22:45:12.483Z,10.70
2019-03-19T22:47:40.908Z,9.97
2019-03-19T22:50:11.994Z,12.17
2019-03-19T22:52:40.423Z,13.83
2019-03-19T22:55:10.854Z,16.13
2019-03-19T22:57:39.272Z,13.23
2019-03-19T23:00:39.689Z,15.87
2019-03-19T23:03:08.715Z,13.43
2019-03-19T23:05:37.237Z,11.93
2019-03-19T23:08:06.007Z,10.23
2019-03-19T23:10:35.229Z,8.13
2019-03-19T23:13:04.083Z,12.07
2019-03-19T23:15:32.538Z,8.93
2019-03-19T23:18:01.013Z,8.50
2019-03-19T23:20:29.421Z,10.23
2019-03-19T23:22:57.840Z,12.00
2019-03-19T23:25:26.312Z,14.40
2019-03-19T23:27:54.732Z,6.23
2019-03-19T23:30:24.270Z,8.20
2019-03-19T23:32:52.690Z,7.47
2019-03-19T23:35:21.091Z,9.40
2019-03-19T23:37:49.565Z,16.40
2019-03-19T23:40:19.870Z,14.40
2019-03-19T23:42:48.286Z,15.80
2019-03-19T23:45:16.766Z,11.57
2019-03-19T23:47:45.186Z,16.07
2019-03-19T23:50:14.914Z,11.70
2019-03-19T23:52:43.347Z,12.20
2019-03-19T23:55:11.889Z,11.90
2019-03-19T23:57:40.305Z,11.47
